Latest Weather Observations for Orange Airport

IDN60801

Issued at 10:05 am EST Saturday 19 April 2014 (issued every 30 minutes, with the page automatically refreshed every 10 minutes)

About weather observations | Map of weather stations | Latest weather observations for NSW | Other Formats
Station Details ID: 063303 Name: ORANGE AIRPORT AWS Lat: -33.38 Lon: 149.13 Height: 947.4 m
Data from the previous 72 hours. | See also: Recent months at Orange Airport
Date/Time
EST
Temp
°C
App
Temp
°C
Dew
Point
Rel
Hum
%
Delta-T
°C
Wind Press
QNH
hPa
Press
MSL
hPa
Rain
since 9 am
mm
Dir
 
Spd
km/h
Gust
km/h
Spd
kts
Gust
kts
19/10:00am 10.9 6.6 3.0 58 3.6 WSW 15 20 8 11 1018.7 - 0.0
19/09:30am 10.1 5.9 3.8 65 2.9 WSW 15 20 8 11 1018.6 - 0.0
19/09:00am 9.4 6.3 5.6 77 1.8 WSW 11 15 6 8 1018.7 1017.3 0.0
19/08:30am 9.1 5.6 5.5 78 1.7 WSW 13 19 7 10 1018.6 - 0.0
19/08:00am 8.9 6.4 6.7 86 1.1 W 9 13 5 7 1018.5 - 0.0
19/07:30am 7.6 5.7 6.5 93 0.5 NW 6 9 3 5 1018.3 - 0.0
19/07:00am 6.8 4.7 5.7 93 0.5 NNW 6 6 3 3 1018.1 - 0.0
19/06:54am 6.9 4.8 5.8 93 0.5 NNW 6 7 3 4 1018.1 - 0.0
19/06:30am 5.7 3.8 4.7 93 0.5 NNW 4 6 2 3 1017.9 - 0.0
19/06:25am 6.1 3.9 5.1 93 0.5 NNW 6 7 3 4 1017.8 - 0.0
19/06:00am 8.1 6.3 7.0 93 0.5 W 6 7 3 4 1017.8 1016.2 0.0
19/05:30am 8.5 6.2 7.4 93 0.5 W 9 11 5 6 1017.9 - 0.0
19/05:00am 8.9 7.1 7.8 93 0.6 WSW 7 9 4 5 1017.8 - 0.0
19/04:46am 9.0 7.2 7.9 93 0.6 WSW 7 9 4 5 1017.8 - 0.0
19/04:30am 9.3 7.6 8.2 93 0.6 W 7 9 4 5 1017.7 - 0.0
19/04:21am 9.5 7.8 8.4 93 0.6 W 7 9 4 5 1017.7 - 0.0
19/04:00am 9.6 7.9 8.5 93 0.6 W 7 9 4 5 1017.8 - 0.0
19/03:30am 9.8 8.2 8.7 93 0.6 W 7 9 4 5 1017.8 - 0.0
19/03:00am 10.0 8.0 8.6 91 0.7 W 9 13 5 7 1017.8 1016.2 0.0
19/02:30am 10.0 7.9 8.4 90 0.8 W 9 11 5 6 1017.9 - 0.0
19/02:00am 9.9 7.8 8.2 89 0.9 W 9 13 5 7 1018.1 - 0.0
19/01:30am 9.7 7.4 7.6 87 1.1 W 9 11 5 6 1018.2 - 0.0
19/01:00am 10.5 8.6 7.7 83 1.4 WSW 7 13 4 7 1018.2 - 0.0
19/12:30am 11.1 8.9 7.8 80 1.7 W 9 11 5 6 1018.2 - 0.0
19/12:00am 11.3 8.7 7.6 78 1.9 WSW 11 20 6 11 1018.1 1016.6 0.0
 
Date/Time
EST
Temp
°C
App
Temp
°C
Dew
Point
Rel
Hum
%
Delta-T
°C
Wind Press
QNH
hPa
Press
MSL
hPa
Rain
since 9 am
mm
Dir
 
Spd
km/h
Gust
km/h
Spd
kts
Gust
kts
18/11:30pm 11.5 9.1 7.2 75 2.2 WSW 9 17 5 9 1018.1 - 0.0
18/11:00pm 11.9 9.2 7.4 74 2.3 W 11 15 6 8 1018.2 - 0.0
18/10:30pm 11.4 9.0 7.1 75 2.2 W 9 11 5 6 1018.2 - 0.0
18/10:00pm 11.6 9.6 7.1 74 2.3 W 7 9 4 5 1018.3 - 0.0
18/09:30pm 11.9 9.9 7.0 72 2.5 W 7 11 4 6 1018.4 - 0.0
18/09:00pm 12.2 10.2 7.1 71 2.6 W 7 11 4 6 1018.4 1016.9 0.0
18/08:30pm 12.9 10.6 7.4 69 2.8 W 9 13 5 7 1018.2 - 0.0
18/08:00pm 13.0 10.3 7.2 68 3.0 W 11 15 6 8 1018.1 - 0.0
18/07:30pm 13.2 10.5 7.2 67 3.1 WSW 11 19 6 10 1018.1 - 0.0
18/07:00pm 13.5 10.4 7.3 66 3.2 WSW 13 19 7 10 1018.0 - 0.0
18/06:30pm 13.6 10.1 7.2 65 3.3 WSW 15 20 8 11 1017.8 - 0.0
18/06:00pm 13.7 10.2 7.2 65 3.3 W 15 22 8 12 1017.5 1016.0 0.0
18/05:30pm 13.8 10.3 7.1 64 3.4 WSW 15 24 8 13 1017.5 - 0.0
18/05:00pm 14.5 12.0 8.0 65 3.4 W 11 17 6 9 1017.3 - 0.0
18/04:30pm 14.7 11.4 8.2 65 3.4 WSW 15 22 8 12 1017.1 - 0.0
18/04:00pm 15.5 11.2 7.8 60 4.0 W 20 32 11 17 1016.9 - 0.0
18/03:30pm 15.9 11.8 7.9 59 4.2 W 19 28 10 15 1017.1 - 0.0
18/03:00pm 15.4 11.1 7.7 60 4.0 W 20 30 11 16 1017.2 1015.7 0.0
18/02:30pm 15.5 11.4 8.5 63 3.7 WSW 20 39 11 21 1017.4 - 0.0
18/02:00pm 15.9 10.8 9.3 65 3.6 SW 26 37 14 20 1017.5 - 0.0
18/01:30pm 14.9 9.9 8.2 64 3.5 SW 24 35 13 19 1017.7 - 0.0
18/01:00pm 14.3 9.9 7.4 63 3.6 WSW 20 30 11 16 1017.9 - 0.0
18/12:30pm 14.4 9.6 7.5 63 3.6 SW 22 32 12 17 1018.3 - 0.0
18/12:00pm 14.7 9.9 7.5 62 3.7 WSW 22 33 12 18 1018.6 1017.1 0.0
18/11:30am 15.0 10.9 8.7 66 3.4 SW 20 30 11 16 1019.1 - 0.0
18/11:00am 14.6 10.2 7.4 62 3.7 SW 20 30 11 16 1019.3 - 0.0
18/10:55am 14.5 10.4 7.8 64 3.5 SW 19 30 10 16 1019.3 - 0.0
18/10:43am 14.5 10.6 8.5 67 3.2 SW 19 26 10 14 1019.4 - 0.0
18/10:38am 14.1 10.1 8.1 67 3.1 SW 19 26 10 14 1019.5 - 0.0
18/10:30am 14.2 10.5 7.9 66 3.3 SW 17 26 9 14 1019.5 - 0.0
18/10:00am 13.5 9.4 7.9 69 2.9 WSW 19 26 10 14 1019.7 - 0.0
18/09:57am 13.6 9.7 8.7 72 2.6 WSW 19 26 10 14 1019.8 - 0.0
18/09:30am 13.1 9.6 8.6 74 2.4 SW 17 24 9 13 1020.0 - 0.0
18/09:00am 12.2 9.2 7.7 74 2.3 WSW 13 19 7 10 1020.1 1018.6 0.0
18/08:30am 11.7 8.8 8.2 79 1.8 WSW 13 19 7 10 1020.1 - 0.0
18/08:00am 10.7 8.5 7.9 83 1.4 WSW 9 13 5 7 1020.1 - 0.0
18/07:30am 7.3 5.3 6.2 93 0.5 WSW 6 7 3 4 1019.7 - 0.0
18/07:00am 5.1 3.4 4.1 93 0.4 W 2 6 1 3 1019.7 - 0.0
18/06:30am 4.9 1.9 2.3 83 1.1 WSW 7 9 4 5 1019.5 - 0.0
18/06:00am 7.2 4.6 6.1 93 0.5 WSW 9 13 5 7 1019.3 1017.8 0.0
18/05:30am 5.2 2.2 4.2 93 0.5 WSW 9 13 5 7 1019.3 - 0.0
18/05:00am 3.8 0.9 2.8 93 0.4 WSW 7 9 4 5 1019.3 - 0.0
18/04:30am 4.0 1.4 3.0 93 0.4 WSW 6 9 3 5 1019.4 - 0.0
18/04:00am 4.3 2.9 3.3 93 0.4 CALM 0 0 0 0 1019.5 - 0.0
18/03:30am 5.5 3.0 4.5 93 0.5 WSW 7 11 4 6 1019.6 - 0.0
18/03:00am 6.5 4.2 5.5 93 0.5 WSW 7 9 4 5 1019.7 1018.3 0.0
18/02:30am 4.3 1.5 3.3 93 0.4 SW 7 7 4 4 1019.8 - 0.0
18/02:00am 5.2 2.6 4.2 93 0.5 WSW 7 9 4 5 1020.2 - 0.0
18/01:30am 4.6 1.8 3.4 92 0.5 WSW 7 11 4 6 1020.5 - 0.0
18/01:00am 5.2 2.6 4.0 92 0.5 WSW 7 9 4 5 1020.6 - 0.0
18/12:30am 5.9 2.9 3.9 87 0.9 SW 9 11 5 6 1020.8 - 0.0
18/12:00am 7.6 5.0 5.9 89 0.8 SW 9 9 5 5 1021.1 1019.6 0.0
 
Date/Time
EST
Temp
°C
App
Temp
°C
Dew
Point
Rel
Hum
%
Delta-T
°C
Wind Press
QNH
hPa
Press
MSL
hPa
Rain
since 9 am
mm
Dir
 
Spd
km/h
Gust
km/h
Spd
kts
Gust
kts
17/11:30pm 7.6 4.9 5.7 88 0.9 SW 9 11 5 6 1021.2 - 0.0
17/11:00pm 7.2 4.4 5.2 87 0.9 SW 9 11 5 6 1021.4 - 0.0
17/10:30pm 6.3 3.4 4.8 90 0.7 SW 9 11 5 6 1021.6 - 0.0
17/10:00pm 5.9 2.6 4.7 92 0.6 SSW 11 11 6 6 1021.7 - 0.0
17/09:30pm 6.8 4.3 4.5 85 1.1 SW 7 9 4 5 1021.9 - 0.0
17/09:00pm 7.8 5.4 5.4 85 1.1 SW 7 9 4 5 1021.7 1020.3 0.0
17/08:30pm 7.6 4.7 4.9 83 1.3 SSW 9 13 5 7 1021.8 - 0.0
17/08:00pm 8.1 5.4 5.4 83 1.3 SSW 9 11 5 6 1021.7 - 0.0
17/07:30pm 7.8 5.0 5.3 84 1.2 SSW 9 9 5 5 1021.6 - 0.0
17/07:00pm 8.9 6.2 5.6 80 1.6 SSW 9 11 5 6 1021.5 - 0.0
17/06:30pm 9.4 6.7 5.6 77 1.8 SSW 9 11 5 6 1021.4 - 0.0
17/06:00pm 10.6 8.1 6.6 76 2.0 SW 9 11 5 6 1021.2 1019.7 0.0
17/05:30pm 11.3 8.4 6.6 73 2.3 SSW 11 13 6 7 1020.8 - 0.0
17/05:00pm 13.5 10.7 6.8 64 3.4 SW 11 17 6 9 1020.9 - 0.0
17/04:30pm 14.5 11.4 7.1 61 3.8 SSW 13 19 7 10 1020.7 - 0.0
17/04:00pm 14.4 9.9 6.3 58 4.1 SSW 19 24 10 13 1020.5 - 0.0
17/03:30pm 14.9 11.0 5.4 53 4.7 S 15 19 8 10 1020.5 - 0.0
17/03:00pm 15.1 11.5 6.9 58 4.2 SSW 15 19 8 10 1020.6 1019.2 0.0
17/02:30pm 14.6 10.2 6.4 58 4.2 SSW 19 26 10 14 1020.7 - 0.0
17/02:00pm 15.0 11.2 6.0 55 4.6 SW 15 24 8 13 1020.7 - 0.0
17/01:30pm 15.0 10.5 6.0 55 4.6 SW 19 26 10 14 1021.1 - 0.0
17/01:00pm 15.2 12.0 6.7 57 4.4 SW 13 20 7 11 1021.1 - 0.0
17/12:30pm 14.7 10.7 6.5 58 4.2 SW 17 20 9 11 1021.4 - 0.0
17/12:00pm 14.7 10.5 7.3 61 3.8 SSW 19 26 10 14 1021.9 1020.5 0.0
17/11:30am 14.5 11.2 6.6 59 4.0 SW 13 20 7 11 1022.4 - 0.0
17/11:00am 14.7 10.7 6.5 58 4.2 SSW 17 24 9 13 1022.5 - 0.0
17/10:30am 14.5 10.8 6.3 58 4.2 SW 15 22 8 12 1022.6 - 0.0
17/10:00am 13.9 10.0 7.2 64 3.4 S 17 20 9 11 1022.6 - 0.0
17/09:30am 13.5 10.1 7.5 67 3.1 S 15 22 8 12 1022.5 - 0.0
17/09:00am 12.5 10.5 7.2 70 2.7 SSE 7 13 4 7 1022.5 1021.1 0.0
17/08:30am 12.0 11.8 9.0 82 1.6 CALM 0 0 0 0 1022.5 - 0.0
17/08:00am 9.8 9.5 8.6 92 0.6 CALM 0 0 0 0 1022.1 - 0.0
17/07:30am 6.8 5.8 5.7 93 0.5 CALM 0 0 0 0 1021.8 - 0.0
17/07:00am 5.1 3.8 4.1 93 0.4 CALM 0 0 0 0 1021.4 - 0.0
17/06:30am 3.1 0.3 2.1 93 0.4 S 6 6 3 3 1020.9 - 0.0
17/06:00am 3.4 0.5 2.4 93 0.4 SSW 7 7 4 4 1020.6 1019.2 0.0
17/05:30am 4.4 1.8 3.4 93 0.4 SSW 6 6 3 3 1020.7 - 0.0
17/05:00am 3.7 2.1 2.7 93 0.4 CALM 0 0 0 0 1020.5 - 0.0
17/04:30am 4.5 3.1 3.5 93 0.4 CALM 0 0 0 0 1020.4 - 0.0
17/04:00am 5.3 2.9 4.3 93 0.5 SSW 6 7 3 4 1020.4 - 0.0
17/03:30am 5.7 3.2 4.7 93 0.5 SSW 7 9 4 5 1020.3 - 0.0
17/03:00am 4.2 1.4 3.2 93 0.4 S 7 9 4 5 1020.2 1018.7 0.0
17/02:30am 3.9 1.0 2.7 92 0.5 S 7 9 4 5 1020.4 - 0.0
17/02:00am 6.4 3.6 5.2 92 0.6 SSW 9 11 5 6 1020.5 - 0.0
17/01:30am 6.9 4.2 5.8 93 0.5 SSW 9 9 5 5 1020.7 - 0.0
17/01:00am 6.9 4.2 5.8 93 0.5 SSW 9 9 5 5 1020.7 - 0.0
17/12:30am 6.4 3.7 5.4 93 0.5 S 9 9 5 5 1020.8 - 0.0
17/12:00am 5.0 2.4 4.0 93 0.4 S 7 9 4 5 1021.2 1019.7 0.0
 
Date/Time
EST
Temp
°C
App
Temp
°C
Dew
Point
Rel
Hum
%
Delta-T
°C
Wind Press
QNH
hPa
Press
MSL
hPa
Rain
since 9 am
mm
Dir
 
Spd
km/h
Gust
km/h
Spd
kts
Gust
kts
16/11:30pm 6.4 3.7 5.4 93 0.5 SSW 9 9 5 5 1021.2 - 0.0
16/11:00pm 6.2 3.4 5.0 92 0.6 SSW 9 9 5 5 1021.4 - 0.0
16/10:30pm 7.7 5.5 6.0 89 0.8 SSW 7 9 4 5 1021.4 - 0.0
16/10:00pm 7.3 5.1 6.1 92 0.6 SSW 7 9 4 5 1021.4 - 0.0
16/09:30pm 7.0 4.2 5.2 88 0.8 SSW 9 11 5 6 1021.4 - 0.0
16/09:00pm 7.3 4.6 5.6 89 0.8 SSW 9 9 5 5 1021.4 1019.9 0.0
16/08:30pm 7.8 5.6 6.4 91 0.7 SSW 7 7 4 4 1021.2 - 0.0
16/08:00pm 8.1 5.4 5.4 83 1.3 SW 9 9 5 5 1021.2 - 0.0
16/07:30pm 9.3 6.8 6.4 82 1.4 SSW 9 11 5 6 1021.1 - 0.0
16/07:00pm 9.4 6.9 6.5 82 1.4 SSW 9 11 5 6 1020.8 - 0.0
16/06:30pm 9.7 6.7 6.1 78 1.8 SSW 11 13 6 7 1020.7 - 0.0
16/06:00pm 11.9 9.1 7.0 72 2.5 SW 11 15 6 8 1020.4 1018.9 0.0
16/05:30pm 13.0 10.3 7.2 68 3.0 SW 11 15 6 8 1020.2 - 0.0
16/05:00pm 14.4 11.0 7.7 64 3.5 SW 15 20 8 11 1020.0 - 0.0
16/04:30pm 14.9 11.4 8.6 66 3.4 SSW 17 20 9 11 1019.7 - 0.0
16/04:00pm 15.4 12.2 8.6 64 3.6 SW 15 20 8 11 1019.6 - 0.0
16/03:30pm 15.8 12.5 9.5 66 3.4 SSW 17 26 9 14 1019.6 - 0.0
16/03:00pm 15.1 12.1 9.2 68 3.2 SSW 15 20 8 11 1019.8 1018.4 0.0
16/02:30pm 14.9 12.1 8.4 65 3.4 SW 13 19 7 10 1019.8 - 0.0
16/02:12pm 16.1 12.9 8.3 60 4.2 S 15 19 8 10 1019.8 - 0.0
16/02:00pm 16.9 14.5 8.6 58 4.5 SW 11 19 6 10 1019.8 - 0.0
16/01:34pm 16.3 13.6 7.3 55 4.7 SW 11 13 6 7 1020.0 - 0.0
16/01:30pm 16.2 14.1 8.2 59 4.3 SSW 9 13 5 7 1020.0 - 0.0
16/01:00pm 15.7 13.4 7.5 58 4.3 S 9 15 5 8 1020.3 - 0.0
16/12:30pm 15.8 13.8 8.5 62 3.9 SSE 9 17 5 9 1020.5 - 0.0
16/12:00pm 15.5 14.0 8.5 63 3.7 NE 6 9 3 5 1021.1 1019.6 0.0
16/11:30am 14.8 12.6 9.4 70 2.9 ENE 11 17 6 9 1021.4 - 0.0
16/11:00am 15.0 13.3 10.0 72 2.7 ENE 9 13 5 7 1021.8 - 0.0
16/10:30am 13.7 10.7 9.2 74 2.4 E 15 19 8 10 1021.9 - 0.0

Other Formats:

Comma delimited format used in spreadsheet applications
http://www.bom.gov.au/fwo/IDN60801/IDN60801.95726.axf

JavaScript Object Notation format (JSON) in row-major order
http://www.bom.gov.au/fwo/IDN60801/IDN60801.95726.json